sensor_id;sensor_type;location;lat;lon;timestamp;P1;durP1;ratioP1;P2;durP2;ratioP2
25175;SDS011;13135;55.166;61.286;2023-08-17T00:00:37;25.20;;;18.77;;
25175;SDS011;13135;55.166;61.286;2023-08-17T00:03:24;29.90;;;20.07;;
25175;SDS011;13135;55.166;61.286;2023-08-17T00:06:09;26.93;;;20.13;;
25175;SDS011;13135;55.166;61.286;2023-08-17T00:08:53;28.93;;;19.90;;
25175;SDS011;13135;55.166;61.286;2023-08-17T00:11:38;25.80;;;18.83;;
25175;SDS011;13135;55.166;61.286;2023-08-17T00:14:22;26.60;;;20.20;;
25175;SDS011;13135;55.166;61.286;2023-08-17T00:17:07;28.57;;;19.77;;
25175;SDS011;13135;55.166;61.286;2023-08-17T00:19:52;27.60;;;20.03;;
25175;SDS011;13135;55.166;61.286;2023-08-17T00:22:39;28.67;;;19.10;;
25175;SDS011;13135;55.166;61.286;2023-08-17T00:25:23;25.93;;;19.37;;
25175;SDS011;13135;55.166;61.286;2023-08-17T00:28:08;27.63;;;19.60;;
25175;SDS011;13135;55.166;61.286;2023-08-17T00:30:53;25.77;;;18.93;;
25175;SDS011;13135;55.166;61.286;2023-08-17T00:33:40;27.97;;;19.43;;
25175;SDS011;13135;55.166;61.286;2023-08-17T00:36:25;27.73;;;18.50;;
25175;SDS011;13135;55.166;61.286;2023-08-17T00:39:08;26.08;;;19.40;;
25175;SDS011;13135;55.166;61.286;2023-08-17T00:41:52;26.30;;;19.27;;
25175;SDS011;13135;55.166;61.286;2023-08-17T00:44:39;26.33;;;19.63;;
25175;SDS011;13135;55.166;61.286;2023-08-17T00:47:23;26.20;;;19.10;;
25175;SDS011;13135;55.166;61.286;2023-08-17T00:50:08;22.77;;;18.97;;
25175;SDS011;13135;55.166;61.286;2023-08-17T00:52:55;24.07;;;18.33;;
25175;SDS011;13135;55.166;61.286;2023-08-17T00:55:42;25.87;;;19.13;;
25175;SDS011;13135;55.166;61.286;2023-08-17T00:58:29;25.50;;;18.37;;
25175;SDS011;13135;55.166;61.286;2023-08-17T01:01:13;25.37;;;17.97;;
25175;SDS011;13135;55.166;61.286;2023-08-17T01:04:00;24.23;;;17.47;;
25175;SDS011;13135;55.166;61.286;2023-08-17T01:06:45;23.93;;;17.17;;
25175;SDS011;13135;55.166;61.286;2023-08-17T01:09:32;23.27;;;17.47;;
25175;SDS011;13135;55.166;61.286;2023-08-17T01:12:20;29.30;;;18.40;;
25175;SDS011;13135;55.166;61.286;2023-08-17T01:15:08;24.83;;;17.87;;
25175;SDS011;13135;55.166;61.286;2023-08-17T01:17:56;25.23;;;17.33;;
25175;SDS011;13135;55.166;61.286;2023-08-17T01:20:56;25.07;;;16.90;;
25175;SDS011;13135;55.166;61.286;2023-08-17T01:23:41;27.03;;;17.27;;
25175;SDS011;13135;55.166;61.286;2023-08-17T01:26:28;26.13;;;16.87;;
25175;SDS011;13135;55.166;61.286;2023-08-17T01:29:13;23.00;;;17.50;;
25175;SDS011;13135;55.166;61.286;2023-08-17T01:32:09;26.13;;;18.30;;
25175;SDS011;13135;55.166;61.286;2023-08-17T01:34:58;25.20;;;17.87;;
25175;SDS011;13135;55.166;61.286;2023-08-17T01:37:41;24.57;;;17.20;;
25175;SDS011;13135;55.166;61.286;2023-08-17T01:40:27;23.07;;;17.33;;
25175;SDS011;13135;55.166;61.286;2023-08-17T01:43:11;22.50;;;17.40;;
25175;SDS011;13135;55.166;61.286;2023-08-17T01:45:56;26.57;;;17.90;;
25175;SDS011;13135;55.166;61.286;2023-08-17T01:48:40;24.93;;;17.07;;
25175;SDS011;13135;55.166;61.286;2023-08-17T01:51:24;26.77;;;17.77;;
25175;SDS011;13135;55.166;61.286;2023-08-17T01:54:09;30.37;;;18.70;;
25175;SDS011;13135;55.166;61.286;2023-08-17T01:56:55;32.38;;;19.00;;
25175;SDS011;13135;55.166;61.286;2023-08-17T01:59:41;32.43;;;19.73;;
25175;SDS011;13135;55.166;61.286;2023-08-17T02:02:25;39.20;;;23.10;;
25175;SDS011;13135;55.166;61.286;2023-08-17T02:05:09;43.57;;;24.47;;
25175;SDS011;13135;55.166;61.286;2023-08-17T02:07:56;44.93;;;24.77;;
25175;SDS011;13135;55.166;61.286;2023-08-17T02:10:41;55.90;;;27.50;;
25175;SDS011;13135;55.166;61.286;2023-08-17T02:13:26;57.83;;;28.43;;
25175;SDS011;13135;55.166;61.286;2023-08-17T02:16:10;53.90;;;27.80;;
25175;SDS011;13135;55.166;61.286;2023-08-17T02:18:55;57.72;;;26.08;;
25175;SDS011;13135;55.166;61.286;2023-08-17T02:21:39;46.87;;;24.47;;
25175;SDS011;13135;55.166;61.286;2023-08-17T02:24:26;42.67;;;22.57;;
25175;SDS011;13135;55.166;61.286;2023-08-17T02:27:08;49.35;;;23.87;;
25175;SDS011;13135;55.166;61.286;2023-08-17T02:29:55;42.62;;;22.55;;
25175;SDS011;13135;55.166;61.286;2023-08-17T02:32:40;45.35;;;22.33;;
25175;SDS011;13135;55.166;61.286;2023-08-17T02:35:25;45.40;;;22.52;;
25175;SDS011;13135;55.166;61.286;2023-08-17T02:38:08;49.17;;;23.95;;
25175;SDS011;13135;55.166;61.286;2023-08-17T02:40:53;45.50;;;24.00;;
25175;SDS011;13135;55.166;61.286;2023-08-17T02:43:38;46.65;;;24.02;;
25175;SDS011;13135;55.166;61.286;2023-08-17T02:46:23;49.97;;;25.08;;
25175;SDS011;13135;55.166;61.286;2023-08-17T02:49:08;53.95;;;26.70;;
25175;SDS011;13135;55.166;61.286;2023-08-17T02:51:55;54.08;;;27.62;;
25175;SDS011;13135;55.166;61.286;2023-08-17T02:54:41;55.17;;;29.77;;
25175;SDS011;13135;55.166;61.286;2023-08-17T02:57:27;55.10;;;28.77;;
25175;SDS011;13135;55.166;61.286;2023-08-17T03:00:14;55.35;;;30.60;;
25175;SDS011;13135;55.166;61.286;2023-08-17T03:03:00;64.90;;;31.65;;
25175;SDS011;13135;55.166;61.286;2023-08-17T03:05:45;61.80;;;31.70;;
25175;SDS011;13135;55.166;61.286;2023-08-17T03:08:30;71.20;;;34.67;;
25175;SDS011;13135;55.166;61.286;2023-08-17T03:11:17;80.80;;;39.80;;
25175;SDS011;13135;55.166;61.286;2023-08-17T03:14:02;83.15;;;37.80;;
25175;SDS011;13135;55.166;61.286;2023-08-17T03:16:46;70.60;;;34.42;;
25175;SDS011;13135;55.166;61.286;2023-08-17T03:19:32;73.70;;;35.97;;
25175;SDS011;13135;55.166;61.286;2023-08-17T03:22:15;72.15;;;35.70;;
25175;SDS011;13135;55.166;61.286;2023-08-17T03:25:00;72.68;;;38.42;;
25175;SDS011;13135;55.166;61.286;2023-08-17T03:27:45;81.30;;;34.25;;
25175;SDS011;13135;55.166;61.286;2023-08-17T03:30:33;76.65;;;33.92;;
25175;SDS011;13135;55.166;61.286;2023-08-17T03:33:17;69.53;;;34.25;;
25175;SDS011;13135;55.166;61.286;2023-08-17T03:36:02;76.95;;;37.15;;
25175;SDS011;13135;55.166;61.286;2023-08-17T03:38:49;69.60;;;38.13;;
25175;SDS011;13135;55.166;61.286;2023-08-17T03:41:35;97.70;;;49.65;;
25175;SDS011;13135;55.166;61.286;2023-08-17T03:44:19;66.15;;;32.95;;
25175;SDS011;13135;55.166;61.286;2023-08-17T03:47:04;59.13;;;30.92;;
25175;SDS011;13135;55.166;61.286;2023-08-17T03:49:48;57.10;;;29.55;;
25175;SDS011;13135;55.166;61.286;2023-08-17T03:52:32;58.72;;;28.05;;
25175;SDS011;13135;55.166;61.286;2023-08-17T03:55:17;51.08;;;26.90;;
25175;SDS011;13135;55.166;61.286;2023-08-17T03:58:04;50.95;;;26.52;;
25175;SDS011;13135;55.166;61.286;2023-08-17T04:00:48;44.33;;;24.73;;
25175;SDS011;13135;55.166;61.286;2023-08-17T04:03:34;49.80;;;24.50;;
25175;SDS011;13135;55.166;61.286;2023-08-17T04:06:18;46.03;;;23.48;;
25175;SDS011;13135;55.166;61.286;2023-08-17T04:09:02;48.30;;;21.98;;
25175;SDS011;13135;55.166;61.286;2023-08-17T04:11:49;51.35;;;21.83;;
25175;SDS011;13135;55.166;61.286;2023-08-17T04:14:33;40.65;;;20.45;;
25175;SDS011;13135;55.166;61.286;2023-08-17T04:17:19;61.78;;;36.15;;
25175;SDS011;13135;55.166;61.286;2023-08-17T04:20:04;68.57;;;42.47;;
25175;SDS011;13135;55.166;61.286;2023-08-17T04:22:50;38.17;;;21.60;;
25175;SDS011;13135;55.166;61.286;2023-08-17T04:25:34;28.02;;;14.20;;
25175;SDS011;13135;55.166;61.286;2023-08-17T04:28:18;24.48;;;14.05;;
25175;SDS011;13135;55.166;61.286;2023-08-17T04:31:02;20.90;;;10.98;;
25175;SDS011;13135;55.166;61.286;2023-08-17T04:33:47;17.20;;;11.00;;
25175;SDS011;13135;55.166;61.286;2023-08-17T04:36:34;17.27;;;9.80;;
25175;SDS011;13135;55.166;61.286;2023-08-17T04:39:19;14.15;;;9.52;;
25175;SDS011;13135;55.166;61.286;2023-08-17T04:42:05;13.82;;;9.70;;
25175;SDS011;13135;55.166;61.286;2023-08-17T04:44:52;46.63;;;34.95;;
25175;SDS011;13135;55.166;61.286;2023-08-17T04:47:39;30.10;;;18.70;;
25175;SDS011;13135;55.166;61.286;2023-08-17T04:50:26;15.25;;;9.68;;
25175;SDS011;13135;55.166;61.286;2023-08-17T04:53:12;14.85;;;9.32;;
25175;SDS011;13135;55.166;61.286;2023-08-17T04:55:58;11.65;;;8.98;;
25175;SDS011;13135;55.166;61.286;2023-08-17T04:58:42;11.30;;;8.57;;
25175;SDS011;13135;55.166;61.286;2023-08-17T05:01:26;13.45;;;9.63;;
25175;SDS011;13135;55.166;61.286;2023-08-17T05:04:11;13.40;;;9.50;;
25175;SDS011;13135;55.166;61.286;2023-08-17T05:06:58;11.73;;;9.40;;
25175;SDS011;13135;55.166;61.286;2023-08-17T05:09:43;12.82;;;9.05;;
25175;SDS011;13135;55.166;61.286;2023-08-17T05:12:32;16.25;;;9.52;;
25175;SDS011;13135;55.166;61.286;2023-08-17T05:15:22;13.27;;;9.07;;
25175;SDS011;13135;55.166;61.286;2023-08-17T05:18:09;13.62;;;9.23;;
25175;SDS011;13135;55.166;61.286;2023-08-17T05:20:54;20.67;;;10.68;;
25175;SDS011;13135;55.166;61.286;2023-08-17T05:23:43;12.88;;;9.48;;
25175;SDS011;13135;55.166;61.286;2023-08-17T05:26:27;15.35;;;9.35;;
25175;SDS011;13135;55.166;61.286;2023-08-17T05:29:11;14.27;;;9.40;;
25175;SDS011;13135;55.166;61.286;2023-08-17T05:31:53;13.40;;;9.38;;
25175;SDS011;13135;55.166;61.286;2023-08-17T05:34:40;17.10;;;9.52;;
25175;SDS011;13135;55.166;61.286;2023-08-17T05:37:25;18.77;;;10.60;;
25175;SDS011;13135;55.166;61.286;2023-08-17T05:40:10;18.70;;;10.57;;
25175;SDS011;13135;55.166;61.286;2023-08-17T05:42:55;13.98;;;9.88;;
25175;SDS011;13135;55.166;61.286;2023-08-17T05:45:40;14.77;;;10.02;;
25175;SDS011;13135;55.166;61.286;2023-08-17T05:48:24;12.93;;;9.32;;
25175;SDS011;13135;55.166;61.286;2023-08-17T05:51:15;14.30;;;9.63;;
25175;SDS011;13135;55.166;61.286;2023-08-17T05:54:02;12.48;;;9.68;;
25175;SDS011;13135;55.166;61.286;2023-08-17T05:56:47;15.43;;;9.73;;
25175;SDS011;13135;55.166;61.286;2023-08-17T05:59:33;13.57;;;9.65;;
25175;SDS011;13135;55.166;61.286;2023-08-17T06:02:20;13.10;;;9.32;;
25175;SDS011;13135;55.166;61.286;2023-08-17T06:05:04;11.98;;;9.00;;
25175;SDS011;13135;55.166;61.286;2023-08-17T06:07:50;13.38;;;9.45;;
25175;SDS011;13135;55.166;61.286;2023-08-17T06:10:36;18.27;;;13.43;;
25175;SDS011;13135;55.166;61.286;2023-08-17T06:13:23;17.25;;;11.57;;
25175;SDS011;13135;55.166;61.286;2023-08-17T06:16:10;16.05;;;9.77;;
25175;SDS011;13135;55.166;61.286;2023-08-17T06:18:55;12.37;;;9.52;;
25175;SDS011;13135;55.166;61.286;2023-08-17T06:21:39;13.85;;;9.80;;
25175;SDS011;13135;55.166;61.286;2023-08-17T06:24:24;13.57;;;9.43;;
25175;SDS011;13135;55.166;61.286;2023-08-17T06:27:13;16.02;;;9.52;;
25175;SDS011;13135;55.166;61.286;2023-08-17T06:29:55;14.65;;;9.93;;
25175;SDS011;13135;55.166;61.286;2023-08-17T06:32:40;13.50;;;9.48;;
25175;SDS011;13135;55.166;61.286;2023-08-17T06:35:25;13.30;;;9.65;;
25175;SDS011;13135;55.166;61.286;2023-08-17T06:38:11;12.30;;;9.23;;
25175;SDS011;13135;55.166;61.286;2023-08-17T06:40:58;12.45;;;10.07;;
25175;SDS011;13135;55.166;61.286;2023-08-17T06:43:44;13.40;;;9.82;;
25175;SDS011;13135;55.166;61.286;2023-08-17T06:46:26;10.68;;;8.95;;
25175;SDS011;13135;55.166;61.286;2023-08-17T06:49:13;11.55;;;9.38;;
25175;SDS011;13135;55.166;61.286;2023-08-17T06:52:00;13.35;;;9.52;;
25175;SDS011;13135;55.166;61.286;2023-08-17T06:54:44;14.68;;;9.38;;
25175;SDS011;13135;55.166;61.286;2023-08-17T06:57:31;11.77;;;8.75;;
25175;SDS011;13135;55.166;61.286;2023-08-17T07:00:18;12.70;;;11.20;;
25175;SDS011;13135;55.166;61.286;2023-08-17T07:03:04;11.15;;;9.10;;
25175;SDS011;13135;55.166;61.286;2023-08-17T07:05:49;13.48;;;8.75;;
25175;SDS011;13135;55.166;61.286;2023-08-17T07:08:36;11.73;;;9.10;;
25175;SDS011;13135;55.166;61.286;2023-08-17T07:11:22;14.40;;;9.18;;
25175;SDS011;13135;55.166;61.286;2023-08-17T07:14:07;13.02;;;8.98;;
25175;SDS011;13135;55.166;61.286;2023-08-17T07:16:54;12.15;;;9.10;;
25175;SDS011;13135;55.166;61.286;2023-08-17T07:19:46;10.95;;;9.15;;
25175;SDS011;13135;55.166;61.286;2023-08-17T07:22:30;11.02;;;8.95;;
25175;SDS011;13135;55.166;61.286;2023-08-17T07:25:17;13.00;;;9.55;;
25175;SDS011;13135;55.166;61.286;2023-08-17T07:28:02;10.77;;;8.65;;
25175;SDS011;13135;55.166;61.286;2023-08-17T07:30:48;10.90;;;8.80;;
25175;SDS011;13135;55.166;61.286;2023-08-17T07:33:43;12.77;;;8.15;;
25175;SDS011;13135;55.166;61.286;2023-08-17T07:36:28;15.65;;;9.05;;
25175;SDS011;13135;55.166;61.286;2023-08-17T07:39:15;10.70;;;8.38;;
25175;SDS011;13135;55.166;61.286;2023-08-17T07:41:59;11.23;;;8.57;;
25175;SDS011;13135;55.166;61.286;2023-08-17T07:44:46;11.32;;;8.50;;
25175;SDS011;13135;55.166;61.286;2023-08-17T07:47:30;13.40;;;8.60;;
25175;SDS011;13135;55.166;61.286;2023-08-17T07:50:17;10.90;;;8.30;;
25175;SDS011;13135;55.166;61.286;2023-08-17T07:53:02;12.25;;;9.25;;
25175;SDS011;13135;55.166;61.286;2023-08-17T07:55:47;12.15;;;9.30;;
25175;SDS011;13135;55.166;61.286;2023-08-17T07:58:33;13.20;;;9.30;;
25175;SDS011;13135;55.166;61.286;2023-08-17T08:01:18;11.52;;;9.30;;
25175;SDS011;13135;55.166;61.286;2023-08-17T08:04:04;12.98;;;10.25;;
25175;SDS011;13135;55.166;61.286;2023-08-17T08:06:51;16.08;;;9.45;;
25175;SDS011;13135;55.166;61.286;2023-08-17T08:09:38;13.80;;;9.68;;
25175;SDS011;13135;55.166;61.286;2023-08-17T08:12:20;12.77;;;10.70;;
25175;SDS011;13135;55.166;61.286;2023-08-17T08:15:07;15.38;;;9.50;;
25175;SDS011;13135;55.166;61.286;2023-08-17T08:17:52;12.93;;;9.70;;
25175;SDS011;13135;55.166;61.286;2023-08-17T08:20:39;13.20;;;10.15;;
25175;SDS011;13135;55.166;61.286;2023-08-17T08:23:20;11.60;;;9.10;;
25175;SDS011;13135;55.166;61.286;2023-08-17T08:26:07;15.70;;;11.93;;
25175;SDS011;13135;55.166;61.286;2023-08-17T08:28:52;16.37;;;11.07;;
25175;SDS011;13135;55.166;61.286;2023-08-17T08:31:35;20.52;;;11.43;;
25175;SDS011;13135;55.166;61.286;2023-08-17T08:34:20;17.60;;;11.35;;
25175;SDS011;13135;55.166;61.286;2023-08-17T08:37:05;19.00;;;11.75;;
25175;SDS011;13135;55.166;61.286;2023-08-17T08:39:52;14.95;;;11.60;;
25175;SDS011;13135;55.166;61.286;2023-08-17T08:42:39;14.65;;;11.75;;
25175;SDS011;13135;55.166;61.286;2023-08-17T08:45:23;14.02;;;11.10;;
25175;SDS011;13135;55.166;61.286;2023-08-17T08:48:11;18.73;;;13.75;;
25175;SDS011;13135;55.166;61.286;2023-08-17T08:50:57;17.60;;;13.70;;
25175;SDS011;13135;55.166;61.286;2023-08-17T08:53:44;19.12;;;14.85;;
25175;SDS011;13135;55.166;61.286;2023-08-17T08:56:30;18.05;;;14.63;;
25175;SDS011;13135;55.166;61.286;2023-08-17T08:59:13;17.42;;;13.07;;
25175;SDS011;13135;55.166;61.286;2023-08-17T09:01:57;18.33;;;13.32;;
25175;SDS011;13135;55.166;61.286;2023-08-17T09:04:43;16.85;;;11.90;;
25175;SDS011;13135;55.166;61.286;2023-08-17T09:07:29;13.80;;;11.80;;
25175;SDS011;13135;55.166;61.286;2023-08-17T09:10:13;15.85;;;11.85;;
25175;SDS011;13135;55.166;61.286;2023-08-17T09:12:59;13.82;;;10.52;;
25175;SDS011;13135;55.166;61.286;2023-08-17T09:15:46;12.30;;;9.45;;
25175;SDS011;13135;55.166;61.286;2023-08-17T09:18:30;11.18;;;9.80;;
25175;SDS011;13135;55.166;61.286;2023-08-17T09:21:21;11.77;;;9.13;;
25175;SDS011;13135;55.166;61.286;2023-08-17T09:24:06;11.90;;;9.30;;
25175;SDS011;13135;55.166;61.286;2023-08-17T09:26:52;14.18;;;10.20;;
25175;SDS011;13135;55.166;61.286;2023-08-17T09:29:37;12.35;;;10.13;;
25175;SDS011;13135;55.166;61.286;2023-08-17T09:32:21;12.60;;;10.02;;
25175;SDS011;13135;55.166;61.286;2023-08-17T09:35:08;10.10;;;8.98;;
25175;SDS011;13135;55.166;61.286;2023-08-17T09:37:55;12.30;;;9.60;;
25175;SDS011;13135;55.166;61.286;2023-08-17T09:40:42;13.70;;;10.85;;
25175;SDS011;13135;55.166;61.286;2023-08-17T09:43:29;11.93;;;9.85;;
25175;SDS011;13135;55.166;61.286;2023-08-17T09:46:14;10.38;;;8.18;;
25175;SDS011;13135;55.166;61.286;2023-08-17T09:48:59;10.23;;;8.50;;
25175;SDS011;13135;55.166;61.286;2023-08-17T09:51:43;8.88;;;7.97;;
25175;SDS011;13135;55.166;61.286;2023-08-17T09:54:30;10.95;;;8.70;;
25175;SDS011;13135;55.166;61.286;2023-08-17T09:57:15;8.88;;;7.97;;
25175;SDS011;13135;55.166;61.286;2023-08-17T09:59:59;11.18;;;8.50;;
25175;SDS011;13135;55.166;61.286;2023-08-17T10:02:49;9.27;;;8.30;;
25175;SDS011;13135;55.166;61.286;2023-08-17T10:05:35;10.32;;;8.65;;
25175;SDS011;13135;55.166;61.286;2023-08-17T10:08:20;11.85;;;8.45;;
25175;SDS011;13135;55.166;61.286;2023-08-17T10:11:05;10.93;;;8.75;;
25175;SDS011;13135;55.166;61.286;2023-08-17T10:13:52;15.15;;;9.73;;
25175;SDS011;13135;55.166;61.286;2023-08-17T10:16:43;12.15;;;9.35;;
25175;SDS011;13135;55.166;61.286;2023-08-17T10:22:26;12.57;;;9.93;;
25175;SDS011;13135;55.166;61.286;2023-08-17T10:25:13;13.62;;;9.55;;
25175;SDS011;13135;55.166;61.286;2023-08-17T10:27:58;14.00;;;10.32;;
25175;SDS011;13135;55.166;61.286;2023-08-17T10:30:42;13.62;;;10.25;;
25175;SDS011;13135;55.166;61.286;2023-08-17T10:33:27;15.00;;;9.77;;
25175;SDS011;13135;55.166;61.286;2023-08-17T10:36:12;11.98;;;10.13;;
25175;SDS011;13135;55.166;61.286;2023-08-17T10:41:56;27.45;;;10.60;;
25175;SDS011;13135;55.166;61.286;2023-08-17T10:44:44;20.58;;;9.85;;
25175;SDS011;13135;55.166;61.286;2023-08-17T10:47:31;20.10;;;10.73;;
25175;SDS011;13135;55.166;61.286;2023-08-17T10:50:21;22.08;;;10.27;;
25175;SDS011;13135;55.166;61.286;2023-08-17T10:53:09;19.25;;;10.05;;
25175;SDS011;13135;55.166;61.286;2023-08-17T10:55:57;18.20;;;10.40;;
25175;SDS011;13135;55.166;61.286;2023-08-17T10:58:42;13.55;;;10.40;;
25175;SDS011;13135;55.166;61.286;2023-08-17T11:01:31;23.50;;;17.85;;
25175;SDS011;13135;55.166;61.286;2023-08-17T11:04:19;20.73;;;14.57;;
25175;SDS011;13135;55.166;61.286;2023-08-17T11:07:01;15.80;;;10.65;;
25175;SDS011;13135;55.166;61.286;2023-08-17T11:09:48;15.77;;;11.25;;
25175;SDS011;13135;55.166;61.286;2023-08-17T11:12:35;16.30;;;11.93;;
25175;SDS011;13135;55.166;61.286;2023-08-17T11:15:23;15.80;;;11.55;;
25175;SDS011;13135;55.166;61.286;2023-08-17T11:18:08;17.27;;;12.60;;
25175;SDS011;13135;55.166;61.286;2023-08-17T11:20:53;21.23;;;12.27;;
25175;SDS011;13135;55.166;61.286;2023-08-17T11:23:40;18.77;;;12.23;;
25175;SDS011;13135;55.166;61.286;2023-08-17T11:26:27;16.80;;;11.95;;
25175;SDS011;13135;55.166;61.286;2023-08-17T11:29:12;21.73;;;12.00;;
25175;SDS011;13135;55.166;61.286;2023-08-17T11:31:57;19.35;;;12.35;;
25175;SDS011;13135;55.166;61.286;2023-08-17T11:34:42;20.37;;;12.50;;
25175;SDS011;13135;55.166;61.286;2023-08-17T11:37:27;16.87;;;11.63;;
25175;SDS011;13135;55.166;61.286;2023-08-17T11:40:13;18.98;;;12.10;;
25175;SDS011;13135;55.166;61.286;2023-08-17T11:42:58;50.78;;;31.58;;
25175;SDS011;13135;55.166;61.286;2023-08-17T11:45:43;26.92;;;13.98;;
25175;SDS011;13135;55.166;61.286;2023-08-17T11:48:27;26.85;;;12.73;;
25175;SDS011;13135;55.166;61.286;2023-08-17T11:51:14;30.70;;;13.70;;
25175;SDS011;13135;55.166;61.286;2023-08-17T11:53:59;25.15;;;13.50;;
25175;SDS011;13135;55.166;61.286;2023-08-17T11:56:45;25.50;;;13.55;;
25175;SDS011;13135;55.166;61.286;2023-08-17T11:59:30;32.03;;;12.75;;
25175;SDS011;13135;55.166;61.286;2023-08-17T12:02:17;22.77;;;12.88;;
25175;SDS011;13135;55.166;61.286;2023-08-17T12:05:02;23.02;;;12.68;;
25175;SDS011;13135;55.166;61.286;2023-08-17T12:07:50;27.58;;;14.30;;
25175;SDS011;13135;55.166;61.286;2023-08-17T12:10:36;27.23;;;14.87;;
25175;SDS011;13135;55.166;61.286;2023-08-17T12:13:27;30.92;;;15.00;;
25175;SDS011;13135;55.166;61.286;2023-08-17T12:16:04;32.28;;;16.02;;
25175;SDS011;13135;55.166;61.286;2023-08-17T12:18:50;32.92;;;16.67;;
25175;SDS011;13135;55.166;61.286;2023-08-17T12:21:34;29.00;;;17.35;;
25175;SDS011;13135;55.166;61.286;2023-08-17T12:24:23;35.03;;;18.65;;
25175;SDS011;13135;55.166;61.286;2023-08-17T12:27:08;30.77;;;16.30;;
25175;SDS011;13135;55.166;61.286;2023-08-17T12:29:53;31.15;;;15.27;;
25175;SDS011;13135;55.166;61.286;2023-08-17T12:32:40;47.42;;;23.55;;
25175;SDS011;13135;55.166;61.286;2023-08-17T12:35:27;29.52;;;16.40;;
25175;SDS011;13135;55.166;61.286;2023-08-17T12:38:12;28.25;;;16.17;;
25175;SDS011;13135;55.166;61.286;2023-08-17T12:40:59;29.42;;;17.10;;
25175;SDS011;13135;55.166;61.286;2023-08-17T12:43:46;30.25;;;15.85;;
25175;SDS011;13135;55.166;61.286;2023-08-17T12:46:33;27.25;;;16.48;;
25175;SDS011;13135;55.166;61.286;2023-08-17T12:49:17;28.20;;;14.90;;
25175;SDS011;13135;55.166;61.286;2023-08-17T12:52:15;36.65;;;23.95;;
25175;SDS011;13135;55.166;61.286;2023-08-17T12:55:03;38.17;;;19.48;;
25175;SDS011;13135;55.166;61.286;2023-08-17T12:57:48;36.50;;;17.55;;
25175;SDS011;13135;55.166;61.286;2023-08-17T13:00:34;28.10;;;16.05;;
25175;SDS011;13135;55.166;61.286;2023-08-17T13:03:19;36.90;;;17.83;;
25175;SDS011;13135;55.166;61.286;2023-08-17T13:06:03;31.90;;;17.75;;
25175;SDS011;13135;55.166;61.286;2023-08-17T13:08:48;38.17;;;17.42;;
25175;SDS011;13135;55.166;61.286;2023-08-17T13:11:32;34.25;;;18.25;;
25175;SDS011;13135;55.166;61.286;2023-08-17T13:14:19;38.42;;;19.08;;
25175;SDS011;13135;55.166;61.286;2023-08-17T13:17:06;37.60;;;17.02;;
25175;SDS011;13135;55.166;61.286;2023-08-17T13:19:47;34.72;;;16.83;;
25175;SDS011;13135;55.166;61.286;2023-08-17T13:22:32;33.63;;;17.77;;
25175;SDS011;13135;55.166;61.286;2023-08-17T13:25:17;37.22;;;21.55;;
25175;SDS011;13135;55.166;61.286;2023-08-17T13:28:04;37.58;;;19.65;;
25175;SDS011;13135;55.166;61.286;2023-08-17T13:30:50;29.15;;;16.65;;
25175;SDS011;13135;55.166;61.286;2023-08-17T13:33:34;33.83;;;16.85;;
25175;SDS011;13135;55.166;61.286;2023-08-17T13:36:19;35.40;;;17.67;;
25175;SDS011;13135;55.166;61.286;2023-08-17T13:39:04;34.67;;;17.37;;
25175;SDS011;13135;55.166;61.286;2023-08-17T13:41:49;38.65;;;16.65;;
25175;SDS011;13135;55.166;61.286;2023-08-17T13:44:34;35.67;;;16.40;;
25175;SDS011;13135;55.166;61.286;2023-08-17T13:47:19;35.30;;;17.37;;
25175;SDS011;13135;55.166;61.286;2023-08-17T13:50:04;27.55;;;15.90;;
25175;SDS011;13135;55.166;61.286;2023-08-17T13:52:50;36.10;;;17.02;;
25175;SDS011;13135;55.166;61.286;2023-08-17T13:55:37;40.25;;;17.15;;
25175;SDS011;13135;55.166;61.286;2023-08-17T13:58:22;32.47;;;17.27;;
25175;SDS011;13135;55.166;61.286;2023-08-17T14:01:08;32.33;;;16.90;;
25175;SDS011;13135;55.166;61.286;2023-08-17T14:03:52;34.40;;;17.08;;
25175;SDS011;13135;55.166;61.286;2023-08-17T14:06:39;35.45;;;17.52;;
25175;SDS011;13135;55.166;61.286;2023-08-17T14:09:23;38.05;;;17.45;;
25175;SDS011;13135;55.166;61.286;2023-08-17T14:12:10;30.67;;;17.15;;
25175;SDS011;13135;55.166;61.286;2023-08-17T14:14:53;36.00;;;18.62;;
25175;SDS011;13135;55.166;61.286;2023-08-17T14:17:40;32.05;;;19.52;;
25175;SDS011;13135;55.166;61.286;2023-08-17T14:20:27;32.08;;;17.50;;
25175;SDS011;13135;55.166;61.286;2023-08-17T14:23:13;31.52;;;17.73;;
25175;SDS011;13135;55.166;61.286;2023-08-17T14:25:58;28.48;;;17.27;;
25175;SDS011;13135;55.166;61.286;2023-08-17T14:28:42;34.80;;;17.65;;
25175;SDS011;13135;55.166;61.286;2023-08-17T14:31:28;31.75;;;17.35;;
25175;SDS011;13135;55.166;61.286;2023-08-17T14:34:15;26.77;;;16.90;;
25175;SDS011;13135;55.166;61.286;2023-08-17T14:37:02;34.15;;;16.52;;
25175;SDS011;13135;55.166;61.286;2023-08-17T14:39:49;27.20;;;16.60;;
25175;SDS011;13135;55.166;61.286;2023-08-17T14:42:34;36.40;;;17.67;;
25175;SDS011;13135;55.166;61.286;2023-08-17T14:45:18;28.20;;;16.45;;
25175;SDS011;13135;55.166;61.286;2023-08-17T14:48:05;29.27;;;15.52;;
25175;SDS011;13135;55.166;61.286;2023-08-17T14:50:49;32.25;;;16.58;;
25175;SDS011;13135;55.166;61.286;2023-08-17T14:53:34;28.92;;;16.10;;
25175;SDS011;13135;55.166;61.286;2023-08-17T14:56:21;26.83;;;15.65;;
25175;SDS011;13135;55.166;61.286;2023-08-17T14:59:05;30.55;;;16.60;;
25175;SDS011;13135;55.166;61.286;2023-08-17T15:01:52;24.45;;;15.23;;
25175;SDS011;13135;55.166;61.286;2023-08-17T15:04:39;25.75;;;15.95;;
25175;SDS011;13135;55.166;61.286;2023-08-17T15:07:25;27.95;;;16.67;;
25175;SDS011;13135;55.166;61.286;2023-08-17T15:10:12;26.77;;;16.35;;
25175;SDS011;13135;55.166;61.286;2023-08-17T15:12:56;26.30;;;16.05;;
25175;SDS011;13135;55.166;61.286;2023-08-17T15:15:41;27.30;;;16.73;;
25175;SDS011;13135;55.166;61.286;2023-08-17T15:18:24;26.83;;;16.73;;
25175;SDS011;13135;55.166;61.286;2023-08-17T15:21:11;30.05;;;17.65;;
25175;SDS011;13135;55.166;61.286;2023-08-17T15:23:57;30.77;;;15.70;;
25175;SDS011;13135;55.166;61.286;2023-08-17T15:26:44;30.17;;;16.48;;
25175;SDS011;13135;55.166;61.286;2023-08-17T15:29:31;26.80;;;16.50;;
25175;SDS011;13135;55.166;61.286;2023-08-17T15:32:18;28.65;;;17.12;;
25175;SDS011;13135;55.166;61.286;2023-08-17T15:35:02;35.17;;;17.83;;
25175;SDS011;13135;55.166;61.286;2023-08-17T15:37:50;33.97;;;17.62;;
25175;SDS011;13135;55.166;61.286;2023-08-17T15:40:35;29.45;;;18.17;;
25175;SDS011;13135;55.166;61.286;2023-08-17T15:43:15;34.22;;;18.77;;
25175;SDS011;13135;55.166;61.286;2023-08-17T15:46:02;32.42;;;18.00;;
25175;SDS011;13135;55.166;61.286;2023-08-17T15:48:44;32.17;;;17.92;;
25175;SDS011;13135;55.166;61.286;2023-08-17T15:51:30;30.23;;;17.70;;
25175;SDS011;13135;55.166;61.286;2023-08-17T15:54:15;33.17;;;18.05;;
25175;SDS011;13135;55.166;61.286;2023-08-17T15:57:04;29.95;;;17.33;;
25175;SDS011;13135;55.166;61.286;2023-08-17T15:59:51;30.17;;;17.45;;
25175;SDS011;13135;55.166;61.286;2023-08-17T16:02:35;29.90;;;17.75;;
25175;SDS011;13135;55.166;61.286;2023-08-17T16:05:18;31.95;;;18.02;;